createdAt,value
2022-12-31T00:00:03.494Z,88
2022-12-31T00:00:34.174Z,88
2022-12-31T00:01:05.373Z,88
2022-12-31T00:01:34.139Z,88
2022-12-31T00:01:53.427Z,88
2022-12-31T00:02:26.335Z,88
2022-12-31T00:03:13.535Z,88
2022-12-31T00:03:35.247Z,88
2022-12-31T00:04:01.448Z,88
2022-12-31T00:04:33.892Z,88
2022-12-31T00:05:22.517Z,88
2022-12-31T00:05:39.885Z,88
2022-12-31T00:06:25.380Z,88
2022-12-31T00:06:57.578Z,88
2022-12-31T00:07:29.353Z,88
2022-12-31T00:08:01.368Z,88
2022-12-31T00:08:33.355Z,88
2022-12-31T00:09:05.345Z,88
2022-12-31T00:09:34.117Z,88
2022-12-31T00:09:53.383Z,88
2022-12-31T00:10:26.628Z,88
2022-12-31T00:10:41.973Z,88
2022-12-31T00:11:13.387Z,88
2022-12-31T00:11:35.169Z,88
2022-12-31T00:12:02.206Z,88
2022-12-31T00:12:34.010Z,88
2022-12-31T00:13:05.409Z,88
2022-12-31T00:13:34.123Z,88
2022-12-31T00:13:53.348Z,88
2022-12-31T00:14:25.333Z,88
2022-12-31T00:14:57.582Z,88
2022-12-31T00:15:30.833Z,88
2022-12-31T00:16:08.275Z,88
2022-12-31T00:16:33.418Z,88
2022-12-31T00:17:05.390Z,88
2022-12-31T00:17:34.116Z,88
2022-12-31T00:17:53.356Z,88
2022-12-31T00:18:25.357Z,88
2022-12-31T00:18:58.418Z,88
2022-12-31T00:19:29.388Z,88
2022-12-31T00:20:03.481Z,88
2022-12-31T00:20:34.304Z,88
2022-12-31T00:21:05.350Z,88
2022-12-31T00:21:34.125Z,88
2022-12-31T00:22:26.081Z,88
2022-12-31T00:22:57.359Z,88
2022-12-31T00:23:35.127Z,88
2022-12-31T00:24:33.389Z,88
2022-12-31T00:25:35.347Z,88
2022-12-31T00:25:53.418Z,88
2022-12-31T00:26:25.396Z,88
2022-12-31T00:26:57.567Z,88
2022-12-31T00:27:35.145Z,88
2022-12-31T00:28:01.393Z,88
2022-12-31T00:28:39.825Z,88
2022-12-31T00:29:05.417Z,87
2022-12-31T00:29:34.165Z,87
2022-12-31T00:30:34.745Z,88
2022-12-31T00:31:13.453Z,88
2022-12-31T00:31:35.810Z,88
2022-12-31T00:32:18.245Z,88
2022-12-31T00:32:39.212Z,88
2022-12-31T00:33:34.649Z,88
2022-12-31T00:34:34.649Z,88
2022-12-31T00:35:36.701Z,88
2022-12-31T00:36:39.212Z,88
2022-12-31T00:37:34.744Z,88
2022-12-31T00:38:09.397Z,88
2022-12-31T00:38:34.638Z,88
2022-12-31T00:39:14.041Z,88
2022-12-31T00:39:35.139Z,88
2022-12-31T00:40:03.230Z,88
2022-12-31T00:40:33.367Z,88
2022-12-31T00:41:05.445Z,88
2022-12-31T00:41:34.107Z,88
2022-12-31T00:42:35.030Z,88
2022-12-31T00:43:35.094Z,88
2022-12-31T00:44:01.413Z,88
2022-12-31T00:44:39.212Z,88
2022-12-31T00:45:35.057Z,87
2022-12-31T00:45:53.580Z,88
2022-12-31T00:46:57.365Z,88
2022-12-31T00:47:35.596Z,88
2022-12-31T00:48:33.551Z,88
2022-12-31T00:49:06.083Z,88
2022-12-31T00:49:34.100Z,88
2022-12-31T00:50:09.695Z,88
2022-12-31T00:50:34.148Z,87
2022-12-31T00:51:13.354Z,87
2022-12-31T00:51:35.133Z,87
2022-12-31T00:52:01.356Z,87
2022-12-31T00:52:33.365Z,88
2022-12-31T00:53:21.825Z,88
2022-12-31T00:54:25.312Z,88
2022-12-31T00:54:57.544Z,88
2022-12-31T00:55:36.657Z,88
2022-12-31T00:56:17.349Z,88
2022-12-31T00:56:39.206Z,88
2022-12-31T00:57:05.331Z,88
2022-12-31T00:57:34.105Z,88
2022-12-31T00:58:25.347Z,88
2022-12-31T00:58:58.224Z,88
2022-12-31T00:59:29.386Z,88
2022-12-31T01:00:03.705Z,88
2022-12-31T01:00:33.886Z,88
2022-12-31T01:01:05.455Z,88
2022-12-31T01:01:34.295Z,88
2022-12-31T01:01:53.460Z,89
2022-12-31T01:02:25.521Z,89
2022-12-31T01:02:57.693Z,89
2022-12-31T01:03:29.461Z,89
2022-12-31T01:04:01.349Z,89
2022-12-31T01:04:34.052Z,89
2022-12-31T01:05:05.637Z,89
2022-12-31T01:05:35.233Z,89
2022-12-31T01:05:53.620Z,89
2022-12-31T01:06:25.342Z,89
2022-12-31T01:06:57.604Z,89
2022-12-31T01:07:29.356Z,89
2022-12-31T01:08:01.457Z,89
2022-12-31T01:08:39.929Z,89
2022-12-31T01:09:05.350Z,89
2022-12-31T01:09:34.091Z,89
2022-12-31T01:09:53.307Z,89
2022-12-31T01:10:25.717Z,89
2022-12-31T01:10:57.513Z,89
2022-12-31T01:11:29.632Z,89
2022-12-31T01:12:01.354Z,89
2022-12-31T01:12:33.398Z,89
2022-12-31T01:13:05.367Z,89
2022-12-31T01:13:34.142Z,89
2022-12-31T01:13:53.361Z,89
2022-12-31T01:14:25.344Z,89
2022-12-31T01:14:58.257Z,89
2022-12-31T01:15:29.989Z,89
2022-12-31T01:16:02.824Z,89
2022-12-31T01:16:33.423Z,89
2022-12-31T01:17:05.373Z,89
2022-12-31T01:17:34.124Z,89
2022-12-31T01:17:53.323Z,89
2022-12-31T01:18:25.325Z,89
2022-12-31T01:18:57.540Z,89
2022-12-31T01:19:29.345Z,89
2022-12-31T01:20:03.321Z,89
2022-12-31T01:20:33.341Z,89
2022-12-31T01:21:05.308Z,89
2022-12-31T01:21:34.099Z,89
2022-12-31T01:21:53.306Z,89
2022-12-31T01:22:25.327Z,89
2022-12-31T01:22:57.541Z,89
2022-12-31T01:23:29.385Z,89
2022-12-31T01:24:01.328Z,89
2022-12-31T01:24:34.526Z,89
2022-12-31T01:25:05.620Z,89
2022-12-31T01:25:34.213Z,89
2022-12-31T01:25:53.575Z,89
2022-12-31T01:26:25.294Z,89
2022-12-31T01:26:57.626Z,89
2022-12-31T01:27:29.374Z,89
2022-12-31T01:28:01.502Z,89
2022-12-31T01:28:33.321Z,89
2022-12-31T01:29:05.295Z,89
2022-12-31T01:29:34.113Z,89
2022-12-31T01:29:53.341Z,89
2022-12-31T01:30:25.895Z,89
2022-12-31T01:30:58.409Z,89
2022-12-31T01:31:29.476Z,89
2022-12-31T01:32:01.392Z,89
2022-12-31T01:32:33.349Z,89
2022-12-31T01:33:05.342Z,89
2022-12-31T01:33:34.204Z,89
2022-12-31T01:33:53.292Z,89
2022-12-31T01:34:25.289Z,89
2022-12-31T01:34:57.557Z,89
2022-12-31T01:35:29.684Z,89
2022-12-31T01:36:01.352Z,89
2022-12-31T01:36:33.533Z,89
2022-12-31T01:37:05.380Z,88
2022-12-31T01:37:34.110Z,88
2022-12-31T01:37:53.332Z,88
2022-12-31T01:38:26.152Z,88
2022-12-31T01:38:57.652Z,88
2022-12-31T01:39:29.382Z,88
2022-12-31T01:40:03.201Z,88
2022-12-31T01:40:34.150Z,88
2022-12-31T01:41:05.522Z,88
2022-12-31T01:41:35.325Z,88
2022-12-31T01:41:53.434Z,88
2022-12-31T01:42:26.060Z,88
2022-12-31T01:42:57.711Z,88
2022-12-31T01:43:29.710Z,88
2022-12-31T01:44:01.446Z,88
2022-12-31T01:44:34.198Z,88
2022-12-31T01:45:10.609Z,88
2022-12-31T01:45:34.487Z,88
2022-12-31T01:46:10.311Z,88
2022-12-31T01:46:34.335Z,88
2022-12-31T01:46:57.590Z,88
2022-12-31T01:47:29.496Z,87
2022-12-31T01:48:02.164Z,87
2022-12-31T01:48:33.597Z,87
2022-12-31T01:49:05.492Z,87
2022-12-31T01:49:34.159Z,87
2022-12-31T01:49:53.500Z,87
2022-12-31T01:50:25.778Z,87
2022-12-31T01:50:57.559Z,87
2022-12-31T01:51:35.646Z,87
2022-12-31T01:52:01.676Z,88
2022-12-31T01:52:33.526Z,88
2022-12-31T01:53:05.323Z,88
2022-12-31T01:53:37.268Z,88
2022-12-31T01:53:53.340Z,88
2022-12-31T01:54:26.198Z,88
2022-12-31T01:54:58.189Z,88
2022-12-31T01:55:29.722Z,88
2022-12-31T01:56:01.352Z,87
2022-12-31T01:56:33.383Z,87
2022-12-31T01:57:21.845Z,87
2022-12-31T01:57:39.433Z,87
2022-12-31T01:58:09.407Z,87
2022-12-31T01:58:34.174Z,87
2022-12-31T01:58:57.382Z,87
2022-12-31T01:59:35.168Z,87
2022-12-31T02:00:03.857Z,87
2022-12-31T02:00:34.174Z,87
2022-12-31T02:01:05.543Z,87
2022-12-31T02:01:34.283Z,86
2022-12-31T02:01:53.499Z,86
2022-12-31T02:02:25.525Z,86
2022-12-31T02:02:57.610Z,86
2022-12-31T02:03:29.442Z,86
2022-12-31T02:04:02.076Z,86
2022-12-31T02:04:33.354Z,86
2022-12-31T02:05:05.678Z,86
2022-12-31T02:05:34.195Z,86
2022-12-31T02:06:09.437Z,86
2022-12-31T02:06:34.549Z,86
2022-12-31T02:06:57.372Z,86
2022-12-31T02:07:29.368Z,86
2022-12-31T02:08:01.346Z,86
2022-12-31T02:08:38.362Z,85
2022-12-31T02:09:05.328Z,85
2022-12-31T02:09:34.127Z,85
2022-12-31T02:09:53.359Z,85
2022-12-31T02:10:26.324Z,85
2022-12-31T02:10:57.401Z,85
2022-12-31T02:11:29.432Z,85
2022-12-31T02:12:01.374Z,85
2022-12-31T02:12:33.369Z,85
2022-12-31T02:13:05.551Z,85
2022-12-31T02:13:35.336Z,85
2022-12-31T02:13:58.193Z,85
2022-12-31T02:14:25.379Z,85
2022-12-31T02:14:57.595Z,85
2022-12-31T02:15:29.952Z,85
2022-12-31T02:16:03.037Z,85
2022-12-31T02:16:33.333Z,85
2022-12-31T02:17:05.317Z,85
2022-12-31T02:17:34.669Z,85
2022-12-31T02:17:53.383Z,85
2022-12-31T02:18:25.420Z,84
2022-12-31T02:18:57.575Z,84
2022-12-31T02:19:29.366Z,84
2022-12-31T02:20:03.692Z,85
2022-12-31T02:20:33.400Z,84
2022-12-31T02:21:05.354Z,84
2022-12-31T02:21:34.131Z,85
2022-12-31T02:21:53.324Z,85
2022-12-31T02:22:25.349Z,85
2022-12-31T02:22:57.607Z,85
2022-12-31T02:23:29.378Z,85
2022-12-31T02:24:01.373Z,85
2022-12-31T02:24:33.952Z,85
2022-12-31T02:25:05.712Z,85
2022-12-31T02:25:34.137Z,85
2022-12-31T02:25:53.593Z,85
2022-12-31T02:26:26.379Z,85
2022-12-31T02:26:57.702Z,85
2022-12-31T02:27:29.430Z,85
2022-12-31T02:28:01.545Z,85
2022-12-31T02:28:33.341Z,85
2022-12-31T02:29:05.362Z,85
2022-12-31T02:29:34.979Z,85
2022-12-31T02:29:53.329Z,84
2022-12-31T02:30:25.903Z,85
2022-12-31T02:30:57.636Z,85
2022-12-31T02:31:29.436Z,85
2022-12-31T02:32:01.352Z,85
2022-12-31T02:32:39.207Z,85
2022-12-31T02:33:34.640Z,85
2022-12-31T02:33:53.369Z,84
2022-12-31T02:34:25.328Z,84
2022-12-31T02:34:57.346Z,84
2022-12-31T02:35:30.700Z,85
2022-12-31T02:36:01.375Z,84
2022-12-31T02:36:39.145Z,84
2022-12-31T02:37:34.106Z,84
2022-12-31T02:37:53.273Z,84
2022-12-31T02:38:25.320Z,84
2022-12-31T02:38:58.192Z,84
2022-12-31T02:39:29.357Z,84
2022-12-31T02:40:03.210Z,84
2022-12-31T02:40:33.307Z,83
2022-12-31T02:41:05.293Z,83
2022-12-31T02:41:34.104Z,83
2022-12-31T02:41:53.325Z,83
2022-12-31T02:42:25.355Z,83
2022-12-31T02:42:57.512Z,84
2022-12-31T02:43:35.101Z,84
2022-12-31T02:44:01.376Z,84
2022-12-31T02:44:33.291Z,84
2022-12-31T02:45:05.836Z,84
2022-12-31T02:45:34.413Z,84
2022-12-31T02:45:53.731Z,85
2022-12-31T02:46:25.341Z,85
2022-12-31T02:46:57.490Z,85
2022-12-31T02:47:29.291Z,85
2022-12-31T02:48:01.270Z,85
2022-12-31T02:48:39.839Z,85
2022-12-31T02:49:34.123Z,85
2022-12-31T02:50:34.408Z,85
2022-12-31T02:50:57.347Z,85
2022-12-31T02:51:29.344Z,85
2022-12-31T02:52:02.130Z,85
2022-12-31T02:52:39.127Z,85
2022-12-31T02:53:05.299Z,85
2022-12-31T02:53:34.095Z,85
2022-12-31T02:53:53.288Z,85
2022-12-31T02:54:34.460Z,85
2022-12-31T02:54:57.281Z,85
2022-12-31T02:55:35.434Z,85
2022-12-31T02:56:39.146Z,85
2022-12-31T02:57:34.065Z,85
2022-12-31T02:58:09.347Z,86
2022-12-31T02:58:34.368Z,86
2022-12-31T02:58:57.495Z,86
2022-12-31T02:59:29.355Z,86
2022-12-31T03:00:03.515Z,85
2022-12-31T03:00:39.412Z,85
2022-12-31T03:01:21.462Z,85
2022-12-31T03:01:39.428Z,85
2022-12-31T03:02:25.408Z,85
2022-12-31T03:03:13.288Z,85
2022-12-31T03:03:35.100Z,85
2022-12-31T03:04:01.301Z,85
2022-12-31T03:04:39.847Z,85
2022-12-31T03:05:22.321Z,85
2022-12-31T03:05:38.615Z,85
2022-12-31T03:06:09.286Z,85
2022-12-31T03:06:34.083Z,84
2022-12-31T03:06:57.740Z,84
2022-12-31T03:07:29.347Z,84
2022-12-31T03:08:01.278Z,84
2022-12-31T03:08:33.268Z,84
2022-12-31T03:09:05.293Z,83
2022-12-31T03:09:34.085Z,83
2022-12-31T03:10:34.622Z,83
2022-12-31T03:11:35.891Z,83
2022-12-31T03:12:39.140Z,83
2022-12-31T03:13:34.700Z,83
2022-12-31T03:14:34.311Z,83
2022-12-31T03:14:57.275Z,84
2022-12-31T03:15:35.863Z,84
2022-12-31T03:16:17.300Z,84
2022-12-31T03:16:39.131Z,83
2022-12-31T03:17:05.280Z,83
2022-12-31T03:17:34.287Z,83
2022-12-31T03:17:54.056Z,83
2022-12-31T03:18:25.304Z,83
2022-12-31T03:18:57.477Z,83
2022-12-31T03:19:29.288Z,83
2022-12-31T03:20:03.004Z,83
2022-12-31T03:20:33.257Z,83
2022-12-31T03:21:05.967Z,83
2022-12-31T03:21:34.121Z,83
2022-12-31T03:21:53.382Z,83
2022-12-31T03:22:25.295Z,82
2022-12-31T03:22:57.493Z,82
2022-12-31T03:23:29.295Z,83
2022-12-31T03:24:01.349Z,82
2022-12-31T03:24:33.370Z,82
2022-12-31T03:25:05.588Z,82
2022-12-31T03:25:34.147Z,82
2022-12-31T03:25:53.542Z,82
2022-12-31T03:26:25.289Z,82
2022-12-31T03:26:57.481Z,82
2022-12-31T03:27:30.201Z,82
2022-12-31T03:28:01.317Z,82
2022-12-31T03:28:34.068Z,82
2022-12-31T03:29:05.290Z,82
2022-12-31T03:29:34.701Z,82
2022-12-31T03:29:53.253Z,82
2022-12-31T03:30:26.002Z,82
2022-12-31T03:30:58.229Z,82
2022-12-31T03:31:29.356Z,82
2022-12-31T03:32:01.295Z,82
2022-12-31T03:32:33.338Z,82
2022-12-31T03:33:05.298Z,82
2022-12-31T03:33:34.120Z,83
2022-12-31T03:33:53.297Z,83
2022-12-31T03:34:25.261Z,82
2022-12-31T03:34:57.477Z,82
2022-12-31T03:35:35.357Z,82
2022-12-31T03:36:01.314Z,82
2022-12-31T03:36:33.248Z,82
2022-12-31T03:37:05.274Z,83
2022-12-31T03:37:34.098Z,83
2022-12-31T03:37:53.325Z,83
2022-12-31T03:38:25.949Z,83
2022-12-31T03:39:32.417Z,83
2022-12-31T03:39:35.123Z,83
2022-12-31T03:40:03.138Z,83
2022-12-31T03:40:33.238Z,83
2022-12-31T03:41:05.315Z,83
2022-12-31T03:41:35.086Z,83
2022-12-31T03:41:53.283Z,83
2022-12-31T03:42:34.384Z,83
2022-12-31T03:42:57.265Z,83
2022-12-31T03:43:29.279Z,83
2022-12-31T03:44:01.292Z,83
2022-12-31T03:44:39.850Z,83
2022-12-31T03:45:05.849Z,83
2022-12-31T03:45:34.163Z,83
2022-12-31T03:45:53.938Z,83
2022-12-31T03:46:34.097Z,83
2022-12-31T03:47:13.262Z,83
2022-12-31T03:47:35.595Z,83
2022-12-31T03:48:01.329Z,83
2022-12-31T03:48:33.613Z,83
2022-12-31T03:49:05.265Z,83
2022-12-31T03:49:34.089Z,84
2022-12-31T03:49:53.312Z,84
2022-12-31T03:50:25.503Z,84
2022-12-31T03:50:42.151Z,84
2022-12-31T03:51:13.281Z,84
2022-12-31T03:51:34.988Z,83
2022-12-31T03:52:01.272Z,84
2022-12-31T03:52:33.265Z,83
2022-12-31T03:53:05.291Z,83
2022-12-31T03:53:34.099Z,83
2022-12-31T03:53:53.299Z,83
2022-12-31T03:54:25.311Z,83
2022-12-31T03:54:57.528Z,83
2022-12-31T03:55:29.580Z,83
2022-12-31T03:56:01.329Z,83
2022-12-31T03:56:33.295Z,83
2022-12-31T03:57:05.289Z,83
2022-12-31T03:57:34.110Z,83
2022-12-31T03:57:53.276Z,83
2022-12-31T03:58:25.246Z,84
2022-12-31T03:58:42.173Z,83
2022-12-31T03:59:13.299Z,83
2022-12-31T03:59:34.587Z,83
2022-12-31T04:00:03.424Z,83
2022-12-31T04:00:34.102Z,83
2022-12-31T04:01:05.336Z,83
2022-12-31T04:01:34.233Z,84
2022-12-31T04:01:53.433Z,84
2022-12-31T04:02:28.965Z,84
2022-12-31T04:02:57.598Z,84
2022-12-31T04:03:29.348Z,84
2022-12-31T04:04:01.305Z,84
2022-12-31T04:04:33.276Z,84
2022-12-31T04:05:05.691Z,84
2022-12-31T04:05:34.409Z,84
2022-12-31T04:05:53.534Z,84
2022-12-31T04:06:25.267Z,84
2022-12-31T04:06:42.151Z,84
2022-12-31T04:07:13.283Z,84
2022-12-31T04:07:34.593Z,84
2022-12-31T04:08:01.248Z,84
2022-12-31T04:08:33.272Z,84
2022-12-31T04:09:05.273Z,84
2022-12-31T04:09:34.071Z,84
2022-12-31T04:09:53.450Z,84
2022-12-31T04:10:25.526Z,84
2022-12-31T04:10:42.154Z,83
2022-12-31T04:11:18.920Z,84
2022-12-31T04:11:35.076Z,84
2022-12-31T04:12:01.310Z,83
2022-12-31T04:12:33.238Z,84
2022-12-31T04:13:05.292Z,83
2022-12-31T04:13:34.086Z,83
2022-12-31T04:13:53.415Z,83
2022-12-31T04:14:25.255Z,83
2022-12-31T04:14:42.159Z,83
2022-12-31T04:15:13.878Z,83
2022-12-31T04:15:34.626Z,83
2022-12-31T04:16:02.845Z,83
2022-12-31T04:16:34.576Z,83
2022-12-31T04:17:05.279Z,83
2022-12-31T04:17:34.105Z,83
2022-12-31T04:17:53.327Z,83
2022-12-31T04:18:25.311Z,83
2022-12-31T04:18:57.515Z,83
2022-12-31T04:19:29.326Z,83
2022-12-31T04:20:03.223Z,84
2022-12-31T04:20:33.258Z,84
2022-12-31T04:21:05.231Z,84
2022-12-31T04:21:35.269Z,83
2022-12-31T04:21:53.304Z,83
2022-12-31T04:22:25.264Z,83
2022-12-31T04:22:42.179Z,83
2022-12-31T04:23:13.265Z,83
2022-12-31T04:23:34.576Z,83
2022-12-31T04:24:01.278Z,83
2022-12-31T04:24:33.447Z,83
2022-12-31T04:25:05.557Z,83
2022-12-31T04:25:34.078Z,83
2022-12-31T04:25:53.568Z,82
2022-12-31T04:26:25.294Z,82
2022-12-31T04:27:02.076Z,83
2022-12-31T04:27:29.287Z,83
2022-12-31T04:28:01.293Z,82
2022-12-31T04:28:33.271Z,82
2022-12-31T04:29:05.274Z,82
2022-12-31T04:29:34.108Z,82
2022-12-31T04:30:11.711Z,82
2022-12-31T04:30:34.117Z,82
2022-12-31T04:30:58.430Z,82
2022-12-31T04:31:29.364Z,82
2022-12-31T04:32:01.334Z,82
2022-12-31T04:32:33.475Z,82
2022-12-31T04:33:05.275Z,83
2022-12-31T04:33:34.085Z,82
2022-12-31T04:33:53.334Z,83
2022-12-31T04:34:25.259Z,82
2022-12-31T04:34:57.487Z,82
2022-12-31T04:35:29.594Z,82
2022-12-31T04:36:01.280Z,82
2022-12-31T04:36:33.275Z,82
2022-12-31T04:37:05.307Z,82
2022-12-31T04:37:34.072Z,82
2022-12-31T04:37:53.298Z,82
2022-12-31T04:38:25.939Z,82
2022-12-31T04:38:57.486Z,82
2022-12-31T04:39:29.272Z,82
2022-12-31T04:40:06.128Z,82
2022-12-31T04:40:33.226Z,82
2022-12-31T04:41:05.260Z,82
2022-12-31T04:41:35.488Z,81
2022-12-31T04:41:53.312Z,82
2022-12-31T04:42:34.104Z,82
2022-12-31T04:42:57.277Z,81
2022-12-31T04:43:29.316Z,82
2022-12-31T04:44:01.285Z,82
2022-12-31T04:44:33.255Z,82
2022-12-31T04:45:05.876Z,82
2022-12-31T04:45:34.619Z,82
2022-12-31T04:45:53.815Z,82
2022-12-31T04:46:25.283Z,82
2022-12-31T04:46:42.133Z,82
2022-12-31T04:47:14.490Z,82
2022-12-31T04:47:34.563Z,82
2022-12-31T04:48:02.034Z,82
2022-12-31T04:48:33.241Z,82
2022-12-31T04:49:05.245Z,82
2022-12-31T04:49:34.482Z,82
2022-12-31T04:49:53.347Z,82
2022-12-31T04:50:25.595Z,82
2022-12-31T04:50:57.498Z,82
2022-12-31T04:51:29.297Z,82
2022-12-31T04:52:01.301Z,82
2022-12-31T04:52:37.155Z,82
2022-12-31T04:53:05.262Z,82
2022-12-31T04:53:34.090Z,82
2022-12-31T04:53:53.303Z,82
2022-12-31T04:54:26.056Z,82
2022-12-31T04:54:57.270Z,82
2022-12-31T04:55:29.570Z,82
2022-12-31T04:56:01.268Z,82
2022-12-31T04:56:33.238Z,82
2022-12-31T04:57:05.238Z,82
2022-12-31T04:57:34.860Z,82
2022-12-31T04:57:53.335Z,82
2022-12-31T04:58:25.262Z,82
2022-12-31T04:58:57.491Z,82
2022-12-31T04:59:29.296Z,82
2022-12-31T05:00:03.400Z,82
2022-12-31T05:00:33.275Z,82
2022-12-31T05:01:05.486Z,82
2022-12-31T05:01:34.128Z,82
2022-12-31T05:01:53.435Z,81
2022-12-31T05:02:24.872Z,81
2022-12-31T05:02:41.966Z,81
2022-12-31T05:03:13.027Z,81
2022-12-31T05:03:34.037Z,81
2022-12-31T05:04:01.422Z,81
2022-12-31T05:04:32.767Z,81
2022-12-31T05:05:05.064Z,81
2022-12-31T05:05:33.651Z,81
2022-12-31T05:05:53.117Z,81
2022-12-31T05:06:25.483Z,81
2022-12-31T05:06:57.512Z,81
2022-12-31T05:07:29.302Z,81
2022-12-31T05:08:01.273Z,81
2022-12-31T05:08:33.745Z,82
2022-12-31T05:09:05.285Z,82
2022-12-31T05:09:34.054Z,82
2022-12-31T05:09:53.233Z,82
2022-12-31T05:10:26.434Z,82
2022-12-31T05:11:13.311Z,82
2022-12-31T05:11:34.777Z,82
2022-12-31T05:12:01.278Z,82
2022-12-31T05:12:33.802Z,82
2022-12-31T05:13:05.224Z,82
2022-12-31T05:13:34.859Z,82
2022-12-31T05:13:53.292Z,82
2022-12-31T05:14:25.250Z,81
2022-12-31T05:14:42.379Z,82
2022-12-31T05:15:13.779Z,82
2022-12-31T05:15:35.083Z,82
2022-12-31T05:16:02.745Z,82
2022-12-31T05:16:33.987Z,82
2022-12-31T05:17:05.304Z,82
2022-12-31T05:17:34.085Z,82
2022-12-31T05:17:53.243Z,82
2022-12-31T05:18:25.410Z,82
2022-12-31T05:18:41.805Z,82
2022-12-31T05:19:13.266Z,82
2022-12-31T05:19:34.559Z,82
2022-12-31T05:20:03.824Z,82
2022-12-31T05:20:33.678Z,82
2022-12-31T05:21:05.243Z,82
2022-12-31T05:21:34.098Z,82
2022-12-31T05:21:53.282Z,82
2022-12-31T05:22:25.283Z,82
2022-12-31T05:22:57.515Z,82
2022-12-31T05:23:29.289Z,82
2022-12-31T05:24:01.312Z,82
2022-12-31T05:24:33.728Z,82
2022-12-31T05:25:05.545Z,82
2022-12-31T05:25:34.093Z,82
2022-12-31T05:25:53.507Z,82
2022-12-31T05:26:26.234Z,82
2022-12-31T05:26:57.388Z,82
2022-12-31T05:27:29.218Z,82
2022-12-31T05:28:01.278Z,81
2022-12-31T05:28:33.996Z,82
2022-12-31T05:29:05.272Z,82
2022-12-31T05:29:34.761Z,82
2022-12-31T05:29:53.259Z,81
2022-12-31T05:30:25.998Z,82
2022-12-31T05:30:57.585Z,82
2022-12-31T05:31:29.312Z,82
2022-12-31T05:32:01.279Z,82
2022-12-31T05:32:33.765Z,82
2022-12-31T05:33:05.247Z,82
2022-12-31T05:33:34.072Z,82
2022-12-31T05:33:53.201Z,82
2022-12-31T05:34:25.276Z,82
2022-12-31T05:34:42.175Z,82
2022-12-31T05:35:13.541Z,82
2022-12-31T05:35:34.602Z,82
2022-12-31T05:36:02.058Z,82
2022-12-31T05:36:33.687Z,82
2022-12-31T05:37:05.228Z,82
2022-12-31T05:37:34.571Z,82
2022-12-31T05:37:53.208Z,82
2022-12-31T05:38:25.298Z,82
2022-12-31T05:38:57.518Z,82
2022-12-31T05:39:29.256Z,82
2022-12-31T05:40:03.431Z,82
2022-12-31T05:40:34.047Z,82
2022-12-31T05:41:05.256Z,82
2022-12-31T05:41:34.069Z,82
2022-12-31T05:41:53.195Z,82
2022-12-31T05:42:26.141Z,82
2022-12-31T05:42:57.309Z,82
2022-12-31T05:43:29.246Z,82
2022-12-31T05:44:01.285Z,82
2022-12-31T05:44:33.697Z,82
2022-12-31T05:45:05.756Z,82
2022-12-31T05:45:35.546Z,82
2022-12-31T05:45:53.653Z,82
2022-12-31T05:46:25.254Z,82
2022-12-31T05:46:42.155Z,82
2022-12-31T05:47:13.246Z,82
2022-12-31T05:47:35.184Z,82
2022-12-31T05:48:01.301Z,82
2022-12-31T05:48:33.718Z,82
2022-12-31T05:49:05.310Z,82
2022-12-31T05:49:34.061Z,82
2022-12-31T05:49:53.201Z,82
2022-12-31T05:50:25.535Z,82
2022-12-31T05:50:42.213Z,82
2022-12-31T05:51:13.343Z,82
2022-12-31T05:51:35.081Z,82
2022-12-31T05:52:03.336Z,82
2022-12-31T05:52:33.738Z,82
2022-12-31T05:53:05.215Z,82
2022-12-31T05:53:34.283Z,82
2022-12-31T05:53:53.269Z,82
2022-12-31T05:54:25.288Z,82
2022-12-31T05:54:57.565Z,82
2022-12-31T05:55:29.540Z,81
2022-12-31T05:56:01.241Z,82
2022-12-31T05:56:33.742Z,82
2022-12-31T05:57:05.204Z,81
2022-12-31T05:57:34.187Z,81
2022-12-31T05:57:53.235Z,81
2022-12-31T05:58:26.050Z,81
2022-12-31T05:58:57.324Z,81
2022-12-31T05:59:29.216Z,81
2022-12-31T06:00:03.713Z,81
2022-12-31T06:00:33.652Z,81
2022-12-31T06:01:05.267Z,81
2022-12-31T06:01:35.700Z,81
2022-12-31T06:01:53.285Z,81
2022-12-31T06:02:25.291Z,81
2022-12-31T06:02:57.660Z,81
2022-12-31T06:03:29.248Z,81
2022-12-31T06:04:01.273Z,81
2022-12-31T06:04:33.721Z,81
2022-12-31T06:05:34.991Z,81
2022-12-31T06:05:53.221Z,81
2022-12-31T06:06:25.221Z,81
2022-12-31T06:06:42.215Z,81
2022-12-31T06:07:13.260Z,81
2022-12-31T06:07:34.889Z,81
2022-12-31T06:08:01.979Z,81
2022-12-31T06:08:33.702Z,81
2022-12-31T06:09:34.105Z,81
2022-12-31T06:09:53.209Z,81
2022-12-31T06:10:25.529Z,81
2022-12-31T06:10:57.513Z,81
2022-12-31T06:11:35.971Z,81
2022-12-31T06:12:17.281Z,81
2022-12-31T06:12:39.104Z,81
2022-12-31T06:13:05.245Z,81
2022-12-31T06:13:34.146Z,81
2022-12-31T06:13:53.189Z,81
2022-12-31T06:14:25.229Z,81
2022-12-31T06:14:45.840Z,81
2022-12-31T06:15:13.779Z,81
2022-12-31T06:15:35.845Z,81
2022-12-31T06:16:02.937Z,81
2022-12-31T06:16:34.070Z,81
2022-12-31T06:17:21.237Z,81
2022-12-31T06:17:38.386Z,81
2022-12-31T06:18:09.226Z,81
2022-12-31T06:18:34.147Z,81
2022-12-31T06:18:57.896Z,81
2022-12-31T06:19:29.246Z,81
2022-12-31T06:20:08.889Z,81
2022-12-31T06:20:38.662Z,81
2022-12-31T06:21:05.926Z,81
2022-12-31T06:21:34.157Z,80
2022-12-31T06:21:53.201Z,80
2022-12-31T06:22:25.228Z,80
2022-12-31T06:22:42.135Z,80
2022-12-31T06:23:35.354Z,81
2022-12-31T06:24:01.252Z,80
2022-12-31T06:24:33.636Z,80
2022-12-31T06:25:05.508Z,80
2022-12-31T06:25:34.349Z,80
2022-12-31T06:25:53.496Z,79
2022-12-31T06:26:25.257Z,80
2022-12-31T06:26:57.334Z,80
2022-12-31T06:27:37.000Z,80
2022-12-31T06:28:01.255Z,80
2022-12-31T06:28:33.665Z,80
2022-12-31T06:29:05.184Z,80
2022-12-31T06:29:34.122Z,80
2022-12-31T06:29:53.201Z,80
2022-12-31T06:30:25.747Z,80
2022-12-31T06:30:43.134Z,80
2022-12-31T06:31:13.308Z,80
2022-12-31T06:31:34.849Z,80
2022-12-31T06:32:17.373Z,79
2022-12-31T06:32:39.054Z,79
2022-12-31T06:33:05.243Z,79
2022-12-31T06:33:34.193Z,79
2022-12-31T06:34:09.204Z,79
2022-12-31T06:34:34.129Z,79
2022-12-31T06:34:57.322Z,79
2022-12-31T06:35:30.201Z,80
2022-12-31T06:36:17.358Z,79
2022-12-31T06:36:39.078Z,80
2022-12-31T06:37:05.212Z,80
2022-12-31T06:37:34.433Z,80
2022-12-31T06:37:53.203Z,80
2022-12-31T06:38:35.662Z,80
2022-12-31T06:38:57.302Z,80
2022-12-31T06:39:35.066Z,80
2022-12-31T06:40:34.147Z,80
2022-12-31T06:41:05.255Z,80
2022-12-31T06:41:34.199Z,80
2022-12-31T06:41:54.101Z,80
2022-12-31T06:42:25.244Z,80
2022-12-31T06:42:42.176Z,80
2022-12-31T06:43:29.219Z,80
2022-12-31T06:44:33.724Z,80
2022-12-31T06:45:37.101Z,81
2022-12-31T06:45:53.395Z,81
2022-12-31T06:46:25.248Z,80
2022-12-31T06:46:42.135Z,80
2022-12-31T06:47:13.212Z,80
2022-12-31T06:47:34.584Z,80
2022-12-31T06:48:17.285Z,80
2022-12-31T06:48:39.354Z,80
2022-12-31T06:49:05.185Z,80
2022-12-31T06:49:34.445Z,80
2022-12-31T06:50:09.796Z,80
2022-12-31T06:50:34.214Z,80
2022-12-31T06:50:58.261Z,80
2022-12-31T06:51:29.236Z,80
2022-12-31T06:52:01.250Z,80
2022-12-31T06:52:33.709Z,80
2022-12-31T06:53:05.241Z,80
2022-12-31T06:53:34.239Z,80
2022-12-31T06:54:34.217Z,80
2022-12-31T06:55:15.127Z,81
2022-12-31T06:55:34.563Z,81
2022-12-31T06:56:34.938Z,81
2022-12-31T06:57:21.274Z,81
2022-12-31T06:57:38.378Z,81
2022-12-31T06:58:09.204Z,81
2022-12-31T06:58:35.568Z,81
2022-12-31T06:58:57.832Z,81
2022-12-31T06:59:29.243Z,81
2022-12-31T07:00:03.937Z,81
2022-12-31T07:00:33.823Z,81
2022-12-31T07:01:05.213Z,80
2022-12-31T07:01:34.375Z,80
2022-12-31T07:01:53.401Z,81
2022-12-31T07:02:25.363Z,80
2022-12-31T07:02:42.334Z,81
2022-12-31T07:03:13.216Z,80
2022-12-31T07:03:34.541Z,81
2022-12-31T07:04:01.256Z,81
2022-12-31T07:04:33.658Z,80
2022-12-31T07:05:06.526Z,80
2022-12-31T07:05:34.254Z,80
2022-12-31T07:05:53.527Z,80
2022-12-31T07:06:25.260Z,81
2022-12-31T07:06:42.113Z,81
2022-12-31T07:07:13.200Z,81
2022-12-31T07:07:34.560Z,81
2022-12-31T07:08:01.230Z,81
2022-12-31T07:08:33.675Z,81
2022-12-31T07:09:05.251Z,81
2022-12-31T07:09:34.275Z,81
2022-12-31T07:09:53.178Z,81
2022-12-31T07:10:29.409Z,81
2022-12-31T07:10:42.116Z,81
2022-12-31T07:11:13.194Z,81
2022-12-31T07:11:34.558Z,81
2022-12-31T07:12:01.230Z,80
2022-12-31T07:12:33.662Z,81
2022-12-31T07:13:05.218Z,81
2022-12-31T07:13:34.349Z,81
2022-12-31T07:13:53.173Z,81
2022-12-31T07:14:25.236Z,81
2022-12-31T07:14:43.011Z,81
2022-12-31T07:15:13.735Z,81